createdAt,value
2018-09-12T00:00:25.410Z,91.20
2018-09-12T00:05:28.974Z,91.80
2018-09-12T00:10:32.507Z,91.70
2018-09-12T00:15:36.354Z,91.00
2018-09-12T00:20:39.952Z,91.30
2018-09-12T00:25:43.507Z,91.40
2018-09-12T00:30:47.032Z,91.60
2018-09-12T00:35:50.654Z,91.50
2018-09-12T00:40:54.266Z,92.30
2018-09-12T00:45:57.916Z,92.80
2018-09-12T00:51:02.378Z,93.10
2018-09-12T00:56:06.110Z,92.20
2018-09-12T01:01:09.694Z,93.10
2018-09-12T01:06:13.338Z,92.40
2018-09-12T01:11:16.967Z,92.30
2018-09-12T01:16:21.578Z,91.60
2018-09-12T01:21:25.156Z,92.30
2018-09-12T01:26:29.862Z,93.20
2018-09-12T01:31:33.452Z,93.60
2018-09-12T01:36:37.036Z,93.80
2018-09-12T01:41:40.587Z,93.70
2018-09-12T01:46:44.254Z,92.90
2018-09-12T01:51:49.535Z,93.20
2018-09-12T01:56:55.191Z,93.20
2018-09-12T02:01:58.722Z,93.20
2018-09-12T02:07:02.254Z,93.70
2018-09-12T02:12:05.826Z,93.30
2018-09-12T02:17:09.354Z,92.40
2018-09-12T02:22:12.986Z,92.50
2018-09-12T02:27:16.530Z,92.60
2018-09-12T02:32:21.167Z,93.90
2018-09-12T02:37:24.920Z,93.70
2018-09-12T02:42:29.623Z,93.60
2018-09-12T02:47:36.994Z,92.70
2018-09-12T02:52:41.636Z,93.20
2018-09-12T02:57:45.283Z,94.00
2018-09-12T03:02:48.950Z,94.40
2018-09-12T03:07:52.645Z,94.50
2018-09-12T03:12:56.206Z,93.20
2018-09-12T03:17:59.729Z,93.90
2018-09-12T03:23:03.263Z,94.30
2018-09-12T03:28:06.886Z,95.30
2018-09-12T03:33:10.617Z,93.10
2018-09-12T03:38:14.167Z,93.50
2018-09-12T03:43:18.755Z,94.20
2018-09-12T03:48:22.320Z,94.60
2018-09-12T03:53:26.038Z,94.70
2018-09-12T03:58:29.711Z,94.70
2018-09-12T04:03:34.399Z,94.20
2018-09-12T04:08:37.981Z,94.40
2018-09-12T04:13:41.499Z,93.40
2018-09-12T04:18:45.282Z,94.00
2018-09-12T04:23:48.926Z,94.10
2018-09-12T04:28:52.492Z,94.40
2018-09-12T04:33:56.135Z,94.90
2018-09-12T04:38:59.689Z,95.10
2018-09-12T04:44:03.272Z,94.80
2018-09-12T04:49:07.410Z,93.30
2018-09-12T04:54:11.121Z,94.40
2018-09-12T04:59:14.823Z,94.60
2018-09-12T05:04:18.434Z,95.30
2018-09-12T05:09:24.039Z,95.40
2018-09-12T05:14:27.619Z,94.10
2018-09-12T05:19:31.282Z,95.20
2018-09-12T05:24:34.930Z,95.40
2018-09-12T05:29:38.518Z,94.50
2018-09-12T05:34:42.095Z,94.60
2018-09-12T05:39:45.694Z,95.00
2018-09-12T05:44:49.268Z,95.00
2018-09-12T05:49:53.071Z,95.30
2018-09-12T05:54:56.645Z,95.50
2018-09-12T06:00:00.236Z,95.40
2018-09-12T06:05:03.957Z,95.40
2018-09-12T06:10:07.554Z,95.30
2018-09-12T06:15:12.644Z,95.30
2018-09-12T06:20:16.286Z,95.40
2018-09-12T06:25:19.851Z,95.30
2018-09-12T06:30:23.615Z,95.40
2018-09-12T06:35:27.191Z,95.50
2018-09-12T06:40:30.763Z,95.40
2018-09-12T06:45:34.422Z,94.90
2018-09-12T06:50:39.198Z,95.30
2018-09-12T06:55:42.893Z,95.00
2018-09-12T07:00:46.578Z,95.20
2018-09-12T07:05:50.244Z,94.60
2018-09-12T07:10:53.881Z,95.20
2018-09-12T07:15:57.462Z,94.80
2018-09-12T07:21:02.079Z,94.40
2018-09-12T07:26:05.774Z,93.70
2018-09-12T07:31:09.388Z,93.60
2018-09-12T07:36:13.126Z,92.90
2018-09-12T07:41:16.812Z,91.70
2018-09-12T07:46:20.371Z,92.20
2018-09-12T07:51:25.090Z,90.50
2018-09-12T07:56:28.721Z,87.90
2018-09-12T08:01:32.362Z,79.60
2018-09-12T08:06:35.898Z,71.10
2018-09-12T08:11:40.661Z,72.20
2018-09-12T08:16:44.221Z,64.80
2018-09-12T08:21:47.898Z,63.60
2018-09-12T08:26:51.525Z,61.80
2018-09-12T08:31:57.082Z,62.90
2018-09-12T08:37:00.723Z,61.30
2018-09-12T08:42:04.400Z,58.20
2018-09-12T08:47:09.958Z,59.30
2018-09-12T08:52:17.035Z,57.40
2018-09-12T08:57:20.630Z,56.10
2018-09-12T09:02:24.183Z,56.70
2018-09-12T09:07:27.695Z,52.90
2018-09-12T09:12:31.685Z,52.70
2018-09-12T09:17:35.267Z,51.90
2018-09-12T09:22:39.214Z,53.90
2018-09-12T09:27:43.639Z,51.70
2018-09-12T09:32:47.292Z,50.00
2018-09-12T09:37:50.774Z,50.80
2018-09-12T09:42:54.382Z,49.90
2018-09-12T09:47:58.078Z,49.70
2018-09-12T09:53:01.722Z,51.30
2018-09-12T09:58:05.538Z,50.80
2018-09-12T10:03:15.363Z,49.70
2018-09-12T10:08:24.073Z,48.30
2018-09-12T10:13:27.665Z,48.10
2018-09-12T10:18:31.234Z,47.90
2018-09-12T10:23:35.832Z,47.90
2018-09-12T10:28:39.381Z,47.20
2018-09-12T10:33:43.791Z,44.50
2018-09-12T10:38:47.331Z,43.30
2018-09-12T10:43:51.009Z,42.80
2018-09-12T10:48:54.558Z,41.10
2018-09-12T10:53:58.526Z,43.50
2018-09-12T10:59:02.211Z,44.40
2018-09-12T11:04:05.811Z,46.20
2018-09-12T11:09:11.643Z,48.90
2018-09-12T11:14:15.199Z,52.00
2018-09-12T11:19:18.807Z,55.90
2018-09-12T11:24:22.363Z,51.80
2018-09-12T11:29:25.911Z,52.40
2018-09-12T11:34:29.587Z,54.00
2018-09-12T11:39:33.379Z,55.30
2018-09-12T11:44:37.019Z,52.60
2018-09-12T11:49:40.961Z,51.40
2018-09-12T11:54:44.654Z,48.80
2018-09-12T11:59:48.181Z,52.70
2018-09-12T12:04:51.746Z,54.00
2018-09-12T12:09:55.698Z,53.60
2018-09-12T12:14:59.202Z,54.10
2018-09-12T12:20:02.733Z,57.10
2018-09-12T12:25:06.536Z,57.00
2018-09-12T12:30:11.141Z,57.00
2018-09-12T12:35:20.633Z,56.30
2018-09-12T12:40:24.322Z,55.00
2018-09-12T12:45:28.006Z,51.80
2018-09-12T12:50:34.838Z,51.50
2018-09-12T12:55:38.723Z,53.60
2018-09-12T13:00:42.311Z,56.10
2018-09-12T13:05:46.062Z,54.30
2018-09-12T13:10:49.500Z,58.20
2018-09-12T13:16:02.918Z,63.00
2018-09-12T13:21:06.683Z,62.90
2018-09-12T13:26:14.317Z,62.20
2018-09-12T13:31:18.226Z,64.80
2018-09-12T13:36:25.025Z,65.80
2018-09-12T13:41:29.897Z,67.20
2018-09-12T13:46:34.639Z,68.60
2018-09-12T13:51:38.350Z,68.00
2018-09-12T13:56:59.566Z,67.80
2018-09-12T14:02:03.145Z,65.80
2018-09-12T14:07:14.153Z,65.80
2018-09-12T14:12:30.110Z,65.00
2018-09-12T14:17:33.726Z,66.30
2018-09-12T14:22:41.359Z,64.80
2018-09-12T14:27:44.994Z,66.80
2018-09-12T14:32:48.602Z,68.70
2018-09-12T14:37:52.151Z,67.90
2018-09-12T14:42:55.837Z,68.10
2018-09-12T14:47:59.777Z,67.50
2018-09-12T14:53:03.374Z,68.90
2018-09-12T14:58:07.304Z,68.70
2018-09-12T15:03:11.942Z,71.80
2018-09-12T15:08:15.502Z,72.80
2018-09-12T15:13:19.118Z,71.20
2018-09-12T15:18:25.981Z,71.00
2018-09-12T15:23:40.756Z,71.50
2018-09-12T15:28:44.411Z,72.80
2018-09-12T15:33:50.091Z,73.80
2018-09-12T15:38:58.805Z,74.20
2018-09-12T15:44:02.936Z,73.60
2018-09-12T15:49:06.904Z,73.10
2018-09-12T15:54:10.602Z,72.10
2018-09-12T15:59:14.342Z,74.40
2018-09-12T16:04:18.014Z,74.50
2018-09-12T16:09:21.818Z,74.40
2018-09-12T16:14:25.510Z,75.80
2018-09-12T16:19:29.035Z,75.60
2018-09-12T16:24:32.778Z,75.40
2018-09-12T16:29:36.359Z,75.70
2018-09-12T16:34:41.178Z,75.60
2018-09-12T16:39:44.778Z,75.70
2018-09-12T16:44:51.949Z,76.90
2018-09-12T16:49:55.574Z,77.90
2018-09-12T16:54:59.165Z,77.90
2018-09-12T17:00:03.387Z,77.70
2018-09-12T17:05:08.054Z,77.90
2018-09-12T17:10:11.726Z,76.70
2018-09-12T17:15:15.293Z,78.30
2018-09-12T17:20:22.421Z,79.00
2018-09-12T17:30:40.678Z,78.00
2018-09-12T17:35:44.315Z,78.20
2018-09-12T17:40:47.951Z,79.50
2018-09-12T17:45:51.745Z,79.50
2018-09-12T17:50:56.430Z,78.80
2018-09-12T17:56:00.099Z,79.20
2018-09-12T18:01:04.410Z,80.10
2018-09-12T18:06:08.331Z,80.90
2018-09-12T18:11:12.166Z,81.70
2018-09-12T18:16:15.982Z,82.70
2018-09-12T18:21:19.574Z,83.70
2018-09-12T18:26:24.384Z,85.40
2018-09-12T18:31:28.203Z,85.30
2018-09-12T18:36:33.064Z,86.10
2018-09-12T18:41:36.798Z,87.10
2018-09-12T18:46:40.487Z,87.50
2018-09-12T18:51:44.141Z,87.70
2018-09-12T18:56:47.930Z,88.30
2018-09-12T19:01:51.869Z,88.40
2018-09-12T19:06:55.669Z,88.90
2018-09-12T19:12:00.175Z,88.90
2018-09-12T19:17:03.934Z,89.60
2018-09-12T19:22:07.539Z,89.90
2018-09-12T19:27:11.191Z,89.70
2018-09-12T19:32:14.727Z,90.30
2018-09-12T19:37:19.794Z,90.10
2018-09-12T19:42:23.894Z,90.20
2018-09-12T19:47:30.558Z,90.60
2018-09-12T19:52:34.267Z,90.60
2018-09-12T19:57:38.169Z,90.60
2018-09-12T20:02:42.986Z,90.50
2018-09-12T20:07:52.763Z,91.00
2018-09-12T20:12:56.395Z,90.50
2018-09-12T20:18:00.176Z,90.90
2018-09-12T20:23:04.025Z,90.90
2018-09-12T20:28:07.564Z,90.80
2018-09-12T20:33:11.199Z,91.20
2018-09-12T20:38:14.809Z,91.90
2018-09-12T20:43:18.589Z,92.30
2018-09-12T20:48:23.715Z,92.40
2018-09-12T20:53:27.675Z,92.40
2018-09-12T20:58:31.194Z,92.80
2018-09-12T21:03:34.938Z,93.00
2018-09-12T21:08:38.637Z,92.70
2018-09-12T21:13:42.309Z,93.00
2018-09-12T21:18:45.857Z,93.40
2018-09-12T21:23:49.448Z,92.40
2018-09-12T21:28:52.977Z,92.80
2018-09-12T21:33:56.536Z,93.50
2018-09-12T21:39:00.070Z,93.10
2018-09-12T21:44:03.646Z,92.40
2018-09-12T21:49:07.171Z,92.90
2018-09-12T21:54:10.693Z,93.10
2018-09-12T21:59:14.229Z,92.80
2018-09-12T22:04:18.228Z,93.60
2018-09-12T22:09:21.773Z,93.70
2018-09-12T22:14:25.426Z,94.20
2018-09-12T22:19:30.053Z,94.20
2018-09-12T22:24:33.621Z,94.70
2018-09-12T22:29:37.245Z,94.40
2018-09-12T22:34:41.041Z,94.40
2018-09-12T22:39:44.612Z,94.50
2018-09-12T22:44:48.175Z,94.40
2018-09-12T22:49:51.805Z,94.50
2018-09-12T22:54:55.368Z,94.70
2018-09-12T22:59:59.026Z,95.10
2018-09-12T23:05:02.670Z,94.80
2018-09-12T23:10:07.359Z,94.80
2018-09-12T23:15:11.355Z,94.60
2018-09-12T23:20:16.018Z,95.20
2018-09-12T23:25:19.659Z,95.70
2018-09-12T23:30:24.314Z,95.40
2018-09-12T23:35:27.910Z,94.80
2018-09-12T23:40:31.518Z,94.60
2018-09-12T23:45:35.111Z,95.40
2018-09-12T23:50:38.811Z,95.60
2018-09-12T23:55:42.370Z,95.30
